D Hanis, Texas
Current Conditions -  °F | °C
As of 9:51 AM on Monday 24 Nov 2014 (Local Time) from KHDO Reporting Station
Clear Clear  
Wind Chill: 12°   Ceiling: Unl
Heat Index: 12°   Visibility: 10mi
Dew Point:   Wind: 10mph
Humidity: 45%   Direction: 350°N
Pressure: 30.15"   Gusts: NA
Location:  29.3507°N, 99.3117°W
Report Text: KHDO 241551Z AUTO 35009KT 10SM CLR 12/01 A3015 RMK AO2 SLP201 T01220006
Loading
Personal Weather Stations






























Interactive Weather Map New forecast layout! Learn more

10-Day Weather Forecast

Advertisements
Track Severe Weather on mobile